sensor_id;sensor_type;location;lat;lon;timestamp;pressure;altitude;pressure_sealevel;temperature;humidity
8318;BME280;4196;48.926;8.964;2022-12-07T00:00:49;99182.25;;;2.70;100.00
8318;BME280;4196;48.926;8.964;2022-12-07T00:03:37;99191.50;;;2.66;100.00
8318;BME280;4196;48.926;8.964;2022-12-07T00:06:24;99180.41;;;2.65;100.00
8318;BME280;4196;48.926;8.964;2022-12-07T00:09:13;99188.31;;;2.73;100.00
8318;BME280;4196;48.926;8.964;2022-12-07T00:12:00;99182.59;;;2.82;100.00
8318;BME280;4196;48.926;8.964;2022-12-07T00:14:47;99182.69;;;2.85;100.00
8318;BME280;4196;48.926;8.964;2022-12-07T00:17:33;99160.19;;;2.73;100.00
8318;BME280;4196;48.926;8.964;2022-12-07T00:20:20;99178.72;;;2.95;100.00
8318;BME280;4196;48.926;8.964;2022-12-07T00:23:06;99180.97;;;2.84;100.00
8318;BME280;4196;48.926;8.964;2022-12-07T00:25:52;99170.91;;;2.61;100.00
8318;BME280;4196;48.926;8.964;2022-12-07T00:28:39;99186.16;;;2.58;100.00
8318;BME280;4196;48.926;8.964;2022-12-07T00:31:27;99183.69;;;2.61;100.00
8318;BME280;4196;48.926;8.964;2022-12-07T00:34:19;99180.84;;;2.52;100.00
8318;BME280;4196;48.926;8.964;2022-12-07T00:37:06;99175.47;;;2.72;100.00
8318;BME280;4196;48.926;8.964;2022-12-07T00:39:52;99152.94;;;2.58;100.00
8318;BME280;4196;48.926;8.964;2022-12-07T00:42:39;99164.41;;;2.44;100.00
8318;BME280;4196;48.926;8.964;2022-12-07T00:45:25;99171.38;;;2.50;100.00
8318;BME280;4196;48.926;8.964;2022-12-07T00:48:12;99179.88;;;2.49;100.00
8318;BME280;4196;48.926;8.964;2022-12-07T00:50:58;99176.16;;;2.39;100.00
8318;BME280;4196;48.926;8.964;2022-12-07T00:53:45;99183.25;;;2.48;100.00
8318;BME280;4196;48.926;8.964;2022-12-07T00:56:33;99186.78;;;2.51;100.00
8318;BME280;4196;48.926;8.964;2022-12-07T00:59:20;99176.47;;;2.48;100.00
8318;BME280;4196;48.926;8.964;2022-12-07T01:02:06;99186.69;;;2.48;100.00
8318;BME280;4196;48.926;8.964;2022-12-07T01:04:52;99181.94;;;2.60;100.00
8318;BME280;4196;48.926;8.964;2022-12-07T01:07:39;99178.66;;;2.64;100.00
8318;BME280;4196;48.926;8.964;2022-12-07T01:10:26;99169.38;;;2.68;100.00
8318;BME280;4196;48.926;8.964;2022-12-07T01:13:13;99175.75;;;2.81;100.00
8318;BME280;4196;48.926;8.964;2022-12-07T01:16:03;99170.91;;;2.90;100.00
8318;BME280;4196;48.926;8.964;2022-12-07T01:18:51;99181.28;;;2.95;100.00
8318;BME280;4196;48.926;8.964;2022-12-07T01:21:38;99174.84;;;2.79;100.00
8318;BME280;4196;48.926;8.964;2022-12-07T01:24:24;99187.50;;;2.76;100.00
8318;BME280;4196;48.926;8.964;2022-12-07T01:27:11;99178.34;;;2.82;100.00
8318;BME280;4196;48.926;8.964;2022-12-07T01:29:57;99171.41;;;2.78;100.00
8318;BME280;4196;48.926;8.964;2022-12-07T01:32:43;99183.38;;;2.79;100.00
8318;BME280;4196;48.926;8.964;2022-12-07T01:35:33;99193.53;;;2.76;100.00
8318;BME280;4196;48.926;8.964;2022-12-07T01:38:19;99180.88;;;2.81;100.00
8318;BME280;4196;48.926;8.964;2022-12-07T01:41:06;99193.78;;;2.85;100.00
8318;BME280;4196;48.926;8.964;2022-12-07T01:44:15;99177.28;;;2.76;100.00
8318;BME280;4196;48.926;8.964;2022-12-07T01:47:03;99193.47;;;3.03;100.00
8318;BME280;4196;48.926;8.964;2022-12-07T01:49:50;99145.34;;;2.61;100.00
8318;BME280;4196;48.926;8.964;2022-12-07T01:52:37;99138.63;;;2.65;100.00
8318;BME280;4196;48.926;8.964;2022-12-07T01:55:25;99169.84;;;2.83;100.00
8318;BME280;4196;48.926;8.964;2022-12-07T01:58:12;99157.56;;;2.72;100.00
8318;BME280;4196;48.926;8.964;2022-12-07T02:00:59;99173.88;;;2.75;100.00
8318;BME280;4196;48.926;8.964;2022-12-07T02:03:45;99181.94;;;2.87;100.00
8318;BME280;4196;48.926;8.964;2022-12-07T02:06:33;99184.81;;;2.71;100.00
8318;BME280;4196;48.926;8.964;2022-12-07T02:09:21;99164.97;;;2.62;100.00
8318;BME280;4196;48.926;8.964;2022-12-07T02:12:07;99177.25;;;2.74;100.00
8318;BME280;4196;48.926;8.964;2022-12-07T02:14:54;99097.50;;;2.29;100.00
8318;BME280;4196;48.926;8.964;2022-12-07T02:18:02;99163.06;;;2.55;100.00
8318;BME280;4196;48.926;8.964;2022-12-07T02:21:05;99182.75;;;2.58;100.00
8318;BME280;4196;48.926;8.964;2022-12-07T02:24:19;99182.03;;;2.63;100.00
8318;BME280;4196;48.926;8.964;2022-12-07T02:30:31;99181.84;;;2.57;100.00
8318;BME280;4196;48.926;8.964;2022-12-07T02:33:26;99152.97;;;2.33;100.00
8318;BME280;4196;48.926;8.964;2022-12-07T02:36:23;99168.34;;;2.34;100.00
8318;BME280;4196;48.926;8.964;2022-12-07T02:39:19;99164.09;;;2.35;100.00
8318;BME280;4196;48.926;8.964;2022-12-07T02:42:14;99115.00;;;1.91;100.00
8318;BME280;4196;48.926;8.964;2022-12-07T02:45:01;99142.47;;;1.98;100.00
8318;BME280;4196;48.926;8.964;2022-12-07T02:47:51;99164.00;;;2.05;100.00
8318;BME280;4196;48.926;8.964;2022-12-07T02:50:44;99163.50;;;2.16;100.00
8318;BME280;4196;48.926;8.964;2022-12-07T02:53:40;99125.53;;;2.00;100.00
8318;BME280;4196;48.926;8.964;2022-12-07T02:57:00;99157.84;;;2.25;100.00
8318;BME280;4196;48.926;8.964;2022-12-07T03:06:16;99158.88;;;2.32;100.00
8318;BME280;4196;48.926;8.964;2022-12-07T03:09:14;99149.94;;;2.45;100.00
8318;BME280;4196;48.926;8.964;2022-12-07T03:12:14;99142.28;;;2.45;100.00
8318;BME280;4196;48.926;8.964;2022-12-07T03:15:08;99146.94;;;2.31;100.00
8318;BME280;4196;48.926;8.964;2022-12-07T03:17:57;99145.25;;;2.31;100.00
8318;BME280;4196;48.926;8.964;2022-12-07T03:20:47;99121.88;;;2.19;100.00
8318;BME280;4196;48.926;8.964;2022-12-07T03:23:37;99110.44;;;2.35;100.00
8318;BME280;4196;48.926;8.964;2022-12-07T03:26:32;99125.72;;;2.60;100.00
8318;BME280;4196;48.926;8.964;2022-12-07T03:29:24;99101.91;;;2.34;100.00
8318;BME280;4196;48.926;8.964;2022-12-07T03:32:17;99124.69;;;2.27;100.00
8318;BME280;4196;48.926;8.964;2022-12-07T03:35:11;99126.34;;;2.25;100.00
8318;BME280;4196;48.926;8.964;2022-12-07T03:38:08;99138.44;;;2.32;100.00
8318;BME280;4196;48.926;8.964;2022-12-07T03:41:13;99114.81;;;2.10;100.00
8318;BME280;4196;48.926;8.964;2022-12-07T03:44:01;99118.56;;;2.22;100.00
8318;BME280;4196;48.926;8.964;2022-12-07T03:47:13;99138.03;;;2.45;100.00
8318;BME280;4196;48.926;8.964;2022-12-07T03:53:24;99093.28;;;2.31;100.00
8318;BME280;4196;48.926;8.964;2022-12-07T03:56:15;99087.34;;;2.03;100.00
8318;BME280;4196;48.926;8.964;2022-12-07T03:59:02;99099.00;;;2.22;100.00
8318;BME280;4196;48.926;8.964;2022-12-07T04:01:57;99108.53;;;2.28;100.00
8318;BME280;4196;48.926;8.964;2022-12-07T04:04:43;99104.88;;;2.20;100.00
8318;BME280;4196;48.926;8.964;2022-12-07T04:07:30;99084.88;;;2.06;100.00
8318;BME280;4196;48.926;8.964;2022-12-07T04:10:17;99091.75;;;2.09;100.00
8318;BME280;4196;48.926;8.964;2022-12-07T04:13:04;99068.53;;;2.01;100.00
8318;BME280;4196;48.926;8.964;2022-12-07T04:15:50;99097.97;;;1.90;100.00
8318;BME280;4196;48.926;8.964;2022-12-07T04:18:36;99096.78;;;1.80;100.00
8318;BME280;4196;48.926;8.964;2022-12-07T04:21:22;99072.47;;;1.64;100.00
8318;BME280;4196;48.926;8.964;2022-12-07T04:24:09;99096.34;;;1.92;100.00
8318;BME280;4196;48.926;8.964;2022-12-07T04:26:55;99104.53;;;1.82;100.00
8318;BME280;4196;48.926;8.964;2022-12-07T04:29:41;99069.63;;;1.55;100.00
8318;BME280;4196;48.926;8.964;2022-12-07T04:32:28;99114.94;;;1.88;100.00
8318;BME280;4196;48.926;8.964;2022-12-07T04:35:14;99083.88;;;1.76;100.00
8318;BME280;4196;48.926;8.964;2022-12-07T04:38:00;99109.16;;;1.93;100.00
8318;BME280;4196;48.926;8.964;2022-12-07T04:40:47;99104.53;;;1.82;100.00
8318;BME280;4196;48.926;8.964;2022-12-07T04:43:34;99105.16;;;1.76;100.00
8318;BME280;4196;48.926;8.964;2022-12-07T04:46:20;99085.44;;;1.45;100.00
8318;BME280;4196;48.926;8.964;2022-12-07T04:49:07;99102.75;;;1.30;100.00
8318;BME280;4196;48.926;8.964;2022-12-07T04:51:53;99076.81;;;1.17;100.00
8318;BME280;4196;48.926;8.964;2022-12-07T04:54:40;99109.47;;;1.28;100.00
8318;BME280;4196;48.926;8.964;2022-12-07T04:57:26;99108.72;;;1.06;100.00
8318;BME280;4196;48.926;8.964;2022-12-07T05:00:12;99067.81;;;0.79;100.00
8318;BME280;4196;48.926;8.964;2022-12-07T05:02:58;99095.28;;;0.86;100.00
8318;BME280;4196;48.926;8.964;2022-12-07T05:05:45;99092.69;;;0.85;100.00
8318;BME280;4196;48.926;8.964;2022-12-07T05:08:32;99127.28;;;1.02;100.00
8318;BME280;4196;48.926;8.964;2022-12-07T05:11:18;99111.81;;;0.98;100.00
8318;BME280;4196;48.926;8.964;2022-12-07T05:14:23;99097.22;;;1.17;100.00
8318;BME280;4196;48.926;8.964;2022-12-07T05:17:10;99086.22;;;1.18;100.00
8318;BME280;4196;48.926;8.964;2022-12-07T05:19:57;99058.97;;;1.17;100.00
8318;BME280;4196;48.926;8.964;2022-12-07T05:22:44;99092.97;;;1.42;100.00
8318;BME280;4196;48.926;8.964;2022-12-07T05:25:30;99100.78;;;1.47;100.00
8318;BME280;4196;48.926;8.964;2022-12-07T05:28:16;99100.13;;;1.52;100.00
8318;BME280;4196;48.926;8.964;2022-12-07T05:31:03;99098.81;;;1.63;100.00
8318;BME280;4196;48.926;8.964;2022-12-07T05:33:49;99083.16;;;1.54;100.00
8318;BME280;4196;48.926;8.964;2022-12-07T05:36:36;99119.84;;;1.82;100.00
8318;BME280;4196;48.926;8.964;2022-12-07T05:39:22;99098.84;;;1.90;100.00
8318;BME280;4196;48.926;8.964;2022-12-07T05:42:10;99110.94;;;1.96;100.00
8318;BME280;4196;48.926;8.964;2022-12-07T05:45:00;99084.09;;;1.56;100.00
8318;BME280;4196;48.926;8.964;2022-12-07T05:47:46;99085.81;;;1.57;100.00
8318;BME280;4196;48.926;8.964;2022-12-07T05:50:32;99075.84;;;1.38;100.00
8318;BME280;4196;48.926;8.964;2022-12-07T05:53:19;99124.94;;;1.82;100.00
8318;BME280;4196;48.926;8.964;2022-12-07T05:56:08;99115.44;;;1.78;100.00
8318;BME280;4196;48.926;8.964;2022-12-07T05:58:55;99081.81;;;1.64;100.00
8318;BME280;4196;48.926;8.964;2022-12-07T06:02:03;99098.72;;;1.62;100.00
8318;BME280;4196;48.926;8.964;2022-12-07T06:04:49;99089.16;;;1.55;100.00
8318;BME280;4196;48.926;8.964;2022-12-07T06:07:36;99084.31;;;1.62;100.00
8318;BME280;4196;48.926;8.964;2022-12-07T06:10:22;99092.34;;;1.73;100.00
8318;BME280;4196;48.926;8.964;2022-12-07T06:13:09;99109.78;;;2.13;100.00
8318;BME280;4196;48.926;8.964;2022-12-07T06:15:55;99097.56;;;2.03;100.00
8318;BME280;4196;48.926;8.964;2022-12-07T06:18:42;99091.41;;;1.98;100.00
8318;BME280;4196;48.926;8.964;2022-12-07T06:21:29;99112.88;;;2.30;100.00
8318;BME280;4196;48.926;8.964;2022-12-07T06:24:16;99121.69;;;2.40;100.00
8318;BME280;4196;48.926;8.964;2022-12-07T06:27:03;99057.41;;;1.99;100.00
8318;BME280;4196;48.926;8.964;2022-12-07T06:29:49;99111.69;;;2.48;100.00
8318;BME280;4196;48.926;8.964;2022-12-07T06:32:37;99110.88;;;2.49;100.00
8318;BME280;4196;48.926;8.964;2022-12-07T06:35:23;99082.19;;;2.29;100.00
8318;BME280;4196;48.926;8.964;2022-12-07T06:38:09;99103.50;;;2.31;100.00
8318;BME280;4196;48.926;8.964;2022-12-07T06:40:56;99115.28;;;2.26;100.00
8318;BME280;4196;48.926;8.964;2022-12-07T06:43:42;99080.97;;;2.17;100.00
8318;BME280;4196;48.926;8.964;2022-12-07T06:46:30;99083.56;;;2.19;100.00
8318;BME280;4196;48.926;8.964;2022-12-07T06:49:17;99111.31;;;2.35;100.00
8318;BME280;4196;48.926;8.964;2022-12-07T06:52:04;99079.78;;;2.35;100.00
8318;BME280;4196;48.926;8.964;2022-12-07T06:54:52;99101.72;;;2.55;100.00
8318;BME280;4196;48.926;8.964;2022-12-07T06:57:38;99058.53;;;2.36;100.00
8318;BME280;4196;48.926;8.964;2022-12-07T07:00:25;99090.63;;;2.55;100.00
8318;BME280;4196;48.926;8.964;2022-12-07T07:03:11;99103.41;;;2.55;100.00
8318;BME280;4196;48.926;8.964;2022-12-07T07:05:58;99075.50;;;2.34;100.00
8318;BME280;4196;48.926;8.964;2022-12-07T07:08:44;99072.81;;;2.29;100.00
8318;BME280;4196;48.926;8.964;2022-12-07T07:11:31;99079.00;;;2.36;100.00
8318;BME280;4196;48.926;8.964;2022-12-07T07:14:35;99106.47;;;2.43;100.00
8318;BME280;4196;48.926;8.964;2022-12-07T07:17:26;99104.25;;;2.55;100.00
8318;BME280;4196;48.926;8.964;2022-12-07T07:20:13;99094.69;;;2.48;100.00
8318;BME280;4196;48.926;8.964;2022-12-07T07:22:59;99077.31;;;2.38;100.00
8318;BME280;4196;48.926;8.964;2022-12-07T07:25:46;99133.03;;;2.77;100.00
8318;BME280;4196;48.926;8.964;2022-12-07T07:28:33;99080.22;;;2.49;100.00
8318;BME280;4196;48.926;8.964;2022-12-07T07:31:19;99064.53;;;2.36;100.00
8318;BME280;4196;48.926;8.964;2022-12-07T07:34:06;99080.09;;;2.46;100.00
8318;BME280;4196;48.926;8.964;2022-12-07T07:36:52;99100.38;;;2.39;100.00
8318;BME280;4196;48.926;8.964;2022-12-07T07:39:39;99120.03;;;2.42;100.00
8318;BME280;4196;48.926;8.964;2022-12-07T07:42:25;99109.00;;;2.16;100.00
8318;BME280;4196;48.926;8.964;2022-12-07T07:45:11;99129.91;;;2.31;100.00
8318;BME280;4196;48.926;8.964;2022-12-07T07:47:58;99112.91;;;2.32;100.00
8318;BME280;4196;48.926;8.964;2022-12-07T07:50:44;99121.50;;;2.34;100.00
8318;BME280;4196;48.926;8.964;2022-12-07T07:53:31;99099.34;;;2.33;100.00
8318;BME280;4196;48.926;8.964;2022-12-07T07:56:18;99115.31;;;2.54;100.00
8318;BME280;4196;48.926;8.964;2022-12-07T07:59:05;99141.59;;;2.79;100.00
8318;BME280;4196;48.926;8.964;2022-12-07T08:01:51;99098.13;;;2.50;100.00
8318;BME280;4196;48.926;8.964;2022-12-07T08:04:38;99145.28;;;2.88;100.00
8318;BME280;4196;48.926;8.964;2022-12-07T08:07:24;99130.69;;;2.84;100.00
8318;BME280;4196;48.926;8.964;2022-12-07T08:10:11;99148.38;;;3.07;100.00
8318;BME280;4196;48.926;8.964;2022-12-07T08:12:58;99099.94;;;2.83;100.00
8318;BME280;4196;48.926;8.964;2022-12-07T08:15:57;99099.78;;;2.77;100.00
8318;BME280;4196;48.926;8.964;2022-12-07T08:18:44;99150.50;;;3.22;100.00
8318;BME280;4196;48.926;8.964;2022-12-07T08:21:30;99115.00;;;3.02;100.00
8318;BME280;4196;48.926;8.964;2022-12-07T08:24:17;99142.38;;;3.36;100.00
8318;BME280;4196;48.926;8.964;2022-12-07T08:27:04;99147.81;;;3.49;100.00
8318;BME280;4196;48.926;8.964;2022-12-07T08:29:50;99158.53;;;3.66;100.00
8318;BME280;4196;48.926;8.964;2022-12-07T08:32:37;99158.84;;;3.78;98.75
8318;BME280;4196;48.926;8.964;2022-12-07T08:35:23;99096.59;;;3.47;99.41
8318;BME280;4196;48.926;8.964;2022-12-07T08:38:10;99165.28;;;3.95;98.42
8318;BME280;4196;48.926;8.964;2022-12-07T08:40:58;99158.09;;;3.82;99.96
8318;BME280;4196;48.926;8.964;2022-12-07T08:43:44;99143.84;;;3.92;99.47
8318;BME280;4196;48.926;8.964;2022-12-07T08:49:28;99113.75;;;3.83;95.94
8318;BME280;4196;48.926;8.964;2022-12-07T08:52:17;99132.81;;;3.94;95.81
8318;BME280;4196;48.926;8.964;2022-12-07T08:55:04;99132.00;;;3.97;94.44
8318;BME280;4196;48.926;8.964;2022-12-07T08:57:51;99144.09;;;4.02;94.56
8318;BME280;4196;48.926;8.964;2022-12-07T09:00:38;99129.34;;;3.94;93.68
8318;BME280;4196;48.926;8.964;2022-12-07T09:03:25;99161.00;;;4.30;93.95
8318;BME280;4196;48.926;8.964;2022-12-07T09:06:11;99156.69;;;4.28;93.28
8318;BME280;4196;48.926;8.964;2022-12-07T09:09:01;99123.72;;;4.07;94.75
8318;BME280;4196;48.926;8.964;2022-12-07T09:11:48;99159.00;;;4.19;95.41
8318;BME280;4196;48.926;8.964;2022-12-07T09:14:34;99139.00;;;4.04;96.45
8318;BME280;4196;48.926;8.964;2022-12-07T09:17:21;99162.38;;;4.16;97.76
8318;BME280;4196;48.926;8.964;2022-12-07T09:20:07;99088.84;;;3.79;98.98
8318;BME280;4196;48.926;8.964;2022-12-07T09:22:54;99165.19;;;4.27;98.27
8318;BME280;4196;48.926;8.964;2022-12-07T09:25:40;99157.53;;;4.28;99.21
8318;BME280;4196;48.926;8.964;2022-12-07T09:28:27;99126.28;;;4.07;100.00
8318;BME280;4196;48.926;8.964;2022-12-07T09:31:13;99134.03;;;4.10;100.00
8318;BME280;4196;48.926;8.964;2022-12-07T09:34:09;99142.50;;;4.07;100.00
8318;BME280;4196;48.926;8.964;2022-12-07T09:36:55;99154.03;;;4.25;100.00
8318;BME280;4196;48.926;8.964;2022-12-07T09:39:41;99134.41;;;4.25;100.00
8318;BME280;4196;48.926;8.964;2022-12-07T09:42:41;99160.31;;;4.38;100.00
8318;BME280;4196;48.926;8.964;2022-12-07T09:45:35;99166.47;;;4.44;100.00
8318;BME280;4196;48.926;8.964;2022-12-07T09:48:27;99164.72;;;4.43;100.00
8318;BME280;4196;48.926;8.964;2022-12-07T09:54:12;99158.44;;;4.30;100.00
8318;BME280;4196;48.926;8.964;2022-12-07T09:56:59;99142.09;;;4.25;100.00
8318;BME280;4196;48.926;8.964;2022-12-07T09:59:46;99124.69;;;4.12;100.00
8318;BME280;4196;48.926;8.964;2022-12-07T10:02:44;99160.91;;;4.26;100.00
8318;BME280;4196;48.926;8.964;2022-12-07T10:05:38;99158.88;;;4.13;100.00
8318;BME280;4196;48.926;8.964;2022-12-07T10:08:26;99113.03;;;3.90;100.00
8318;BME280;4196;48.926;8.964;2022-12-07T10:11:13;99138.31;;;4.09;100.00
8318;BME280;4196;48.926;8.964;2022-12-07T10:14:12;99135.81;;;4.13;100.00
8318;BME280;4196;48.926;8.964;2022-12-07T10:17:00;99088.41;;;3.95;100.00
8318;BME280;4196;48.926;8.964;2022-12-07T10:19:46;99082.63;;;4.04;100.00
8318;BME280;4196;48.926;8.964;2022-12-07T10:22:33;99104.50;;;4.24;100.00
8318;BME280;4196;48.926;8.964;2022-12-07T10:25:20;99119.88;;;4.26;100.00
8318;BME280;4196;48.926;8.964;2022-12-07T10:31:01;99121.75;;;4.33;100.00
8318;BME280;4196;48.926;8.964;2022-12-07T10:33:53;99122.94;;;4.46;100.00
8318;BME280;4196;48.926;8.964;2022-12-07T10:36:40;99124.47;;;4.39;100.00
8318;BME280;4196;48.926;8.964;2022-12-07T10:39:27;99107.31;;;4.36;100.00
8318;BME280;4196;48.926;8.964;2022-12-07T10:42:17;99128.91;;;4.46;100.00
8318;BME280;4196;48.926;8.964;2022-12-07T10:45:15;99129.00;;;4.49;100.00
8318;BME280;4196;48.926;8.964;2022-12-07T10:48:19;99091.59;;;4.21;100.00
8318;BME280;4196;48.926;8.964;2022-12-07T10:51:27;99122.81;;;4.41;100.00
8318;BME280;4196;48.926;8.964;2022-12-07T11:11:06;99104.84;;;3.69;100.00
8318;BME280;4196;48.926;8.964;2022-12-07T11:16:57;99104.81;;;4.02;100.00
8318;BME280;4196;48.926;8.964;2022-12-07T11:20:00;99094.59;;;4.05;100.00
8318;BME280;4196;48.926;8.964;2022-12-07T11:23:06;99099.09;;;4.14;100.00
8318;BME280;4196;48.926;8.964;2022-12-07T11:29:28;99093.13;;;4.51;100.00
8318;BME280;4196;48.926;8.964;2022-12-07T11:38:19;99063.41;;;5.01;100.00
8318;BME280;4196;48.926;8.964;2022-12-07T11:41:19;99058.50;;;5.14;100.00
8318;BME280;4196;48.926;8.964;2022-12-07T11:44:30;99081.22;;;5.39;99.53
8318;BME280;4196;48.926;8.964;2022-12-07T11:47:47;99070.09;;;5.40;98.65
8318;BME280;4196;48.926;8.964;2022-12-07T11:50:38;99040.72;;;5.23;99.24
8318;BME280;4196;48.926;8.964;2022-12-07T11:53:38;99063.16;;;5.35;100.00
8318;BME280;4196;48.926;8.964;2022-12-07T11:56:27;99069.31;;;5.44;99.71
8318;BME280;4196;48.926;8.964;2022-12-07T11:59:19;99062.34;;;5.37;100.00
8318;BME280;4196;48.926;8.964;2022-12-07T12:02:14;99063.84;;;5.26;100.00
8318;BME280;4196;48.926;8.964;2022-12-07T12:08:02;99046.56;;;5.17;100.00
8318;BME280;4196;48.926;8.964;2022-12-07T12:18:01;99049.09;;;5.14;100.00
8318;BME280;4196;48.926;8.964;2022-12-07T12:20:58;99033.31;;;4.94;100.00
8318;BME280;4196;48.926;8.964;2022-12-07T12:23:50;99049.50;;;4.90;100.00
8318;BME280;4196;48.926;8.964;2022-12-07T12:27:15;99046.97;;;4.93;100.00
8318;BME280;4196;48.926;8.964;2022-12-07T12:29:59;99021.91;;;4.80;100.00
8318;BME280;4196;48.926;8.964;2022-12-07T12:32:46;99013.16;;;4.69;100.00
8318;BME280;4196;48.926;8.964;2022-12-07T12:35:37;99036.38;;;4.76;100.00
8318;BME280;4196;48.926;8.964;2022-12-07T12:45:03;99039.22;;;4.90;100.00
8318;BME280;4196;48.926;8.964;2022-12-07T12:47:55;99041.88;;;4.95;100.00
8318;BME280;4196;48.926;8.964;2022-12-07T12:50:42;99033.31;;;4.94;100.00
8318;BME280;4196;48.926;8.964;2022-12-07T12:53:28;99008.88;;;4.68;100.00
8318;BME280;4196;48.926;8.964;2022-12-07T12:56:38;98978.53;;;4.48;100.00
8318;BME280;4196;48.926;8.964;2022-12-07T12:59:33;99026.50;;;4.96;100.00
8318;BME280;4196;48.926;8.964;2022-12-07T13:02:26;98998.50;;;4.63;100.00
8318;BME280;4196;48.926;8.964;2022-12-07T13:08:24;99002.31;;;4.83;100.00
8318;BME280;4196;48.926;8.964;2022-12-07T13:20:47;99000.63;;;5.31;100.00
8318;BME280;4196;48.926;8.964;2022-12-07T13:29:21;98998.13;;;5.34;100.00
8318;BME280;4196;48.926;8.964;2022-12-07T13:32:25;98960.16;;;5.16;100.00
8318;BME280;4196;48.926;8.964;2022-12-07T13:35:36;98968.59;;;5.09;100.00
8318;BME280;4196;48.926;8.964;2022-12-07T13:38:34;98962.25;;;4.90;100.00
8318;BME280;4196;48.926;8.964;2022-12-07T13:41:25;98991.53;;;5.01;100.00
8318;BME280;4196;48.926;8.964;2022-12-07T13:44:14;98988.59;;;4.81;100.00
8318;BME280;4196;48.926;8.964;2022-12-07T13:49:52;98994.13;;;4.57;100.00
8318;BME280;4196;48.926;8.964;2022-12-07T13:52:44;98914.47;;;4.06;100.00
8318;BME280;4196;48.926;8.964;2022-12-07T13:55:31;98957.59;;;4.27;100.00
8318;BME280;4196;48.926;8.964;2022-12-07T13:58:17;98992.06;;;4.41;100.00
8318;BME280;4196;48.926;8.964;2022-12-07T14:01:05;98993.75;;;4.39;100.00
8318;BME280;4196;48.926;8.964;2022-12-07T14:03:51;98986.81;;;4.35;100.00
8318;BME280;4196;48.926;8.964;2022-12-07T14:06:48;98997.16;;;4.40;100.00
8318;BME280;4196;48.926;8.964;2022-12-07T14:09:34;98991.03;;;4.31;100.00
8318;BME280;4196;48.926;8.964;2022-12-07T14:12:21;98997.19;;;4.41;100.00
8318;BME280;4196;48.926;8.964;2022-12-07T14:15:20;98979.13;;;4.35;100.00
8318;BME280;4196;48.926;8.964;2022-12-07T14:18:26;98978.09;;;4.27;100.00
8318;BME280;4196;48.926;8.964;2022-12-07T14:21:20;98988.34;;;4.27;100.00
8318;BME280;4196;48.926;8.964;2022-12-07T14:24:20;98957.72;;;3.94;100.00
8318;BME280;4196;48.926;8.964;2022-12-07T14:27:23;98953.59;;;4.00;100.00
8318;BME280;4196;48.926;8.964;2022-12-07T14:30:16;98992.28;;;4.11;100.00
8318;BME280;4196;48.926;8.964;2022-12-07T14:33:04;98991.66;;;4.21;100.00
8318;BME280;4196;48.926;8.964;2022-12-07T14:35:51;98989.81;;;4.16;100.00
8318;BME280;4196;48.926;8.964;2022-12-07T14:38:44;98981.03;;;4.04;100.00
8318;BME280;4196;48.926;8.964;2022-12-07T14:41:30;98993.50;;;3.89;100.00
8318;BME280;4196;48.926;8.964;2022-12-07T14:44:35;98990.84;;;3.86;100.00
8318;BME280;4196;48.926;8.964;2022-12-07T14:47:23;98980.16;;;3.66;100.00
8318;BME280;4196;48.926;8.964;2022-12-07T14:50:30;98970.63;;;3.60;100.00
8318;BME280;4196;48.926;8.964;2022-12-07T14:53:27;98980.25;;;3.71;100.00
8318;BME280;4196;48.926;8.964;2022-12-07T14:56:15;98996.63;;;3.76;100.00
8318;BME280;4196;48.926;8.964;2022-12-07T14:59:02;98974.03;;;3.59;100.00
8318;BME280;4196;48.926;8.964;2022-12-07T15:01:49;98989.66;;;3.70;100.00
8318;BME280;4196;48.926;8.964;2022-12-07T15:04:35;98996.38;;;3.67;100.00
8318;BME280;4196;48.926;8.964;2022-12-07T15:07:22;98980.75;;;3.56;100.00
8318;BME280;4196;48.926;8.964;2022-12-07T15:10:19;98972.75;;;3.42;100.00
8318;BME280;4196;48.926;8.964;2022-12-07T15:13:10;98997.16;;;3.62;100.00
8318;BME280;4196;48.926;8.964;2022-12-07T15:16:19;99008.09;;;3.57;100.00
8318;BME280;4196;48.926;8.964;2022-12-07T15:19:11;98982.94;;;3.39;100.00
8318;BME280;4196;48.926;8.964;2022-12-07T15:22:13;98998.66;;;3.54;100.00
8318;BME280;4196;48.926;8.964;2022-12-07T15:24:59;99002.75;;;3.48;100.00
8318;BME280;4196;48.926;8.964;2022-12-07T15:27:46;98926.50;;;3.00;100.00
8318;BME280;4196;48.926;8.964;2022-12-07T15:30:33;99005.13;;;3.40;100.00
8318;BME280;4196;48.926;8.964;2022-12-07T15:33:19;98985.03;;;3.21;100.00
8318;BME280;4196;48.926;8.964;2022-12-07T15:36:06;99010.16;;;3.37;100.00
8318;BME280;4196;48.926;8.964;2022-12-07T15:38:53;99007.53;;;3.34;100.00
8318;BME280;4196;48.926;8.964;2022-12-07T15:41:59;98987.81;;;3.30;100.00
8318;BME280;4196;48.926;8.964;2022-12-07T15:44:45;98971.41;;;3.22;100.00
8318;BME280;4196;48.926;8.964;2022-12-07T15:47:51;98970.63;;;3.24;100.00
8318;BME280;4196;48.926;8.964;2022-12-07T15:51:05;98995.69;;;3.37;100.00
8318;BME280;4196;48.926;8.964;2022-12-07T15:53:53;98969.41;;;3.10;100.00
8318;BME280;4196;48.926;8.964;2022-12-07T15:56:40;98962.88;;;3.21;100.00
8318;BME280;4196;48.926;8.964;2022-12-07T15:59:27;98976.63;;;3.26;100.00
8318;BME280;4196;48.926;8.964;2022-12-07T16:02:14;98991.41;;;3.38;100.00
8318;BME280;4196;48.926;8.964;2022-12-07T16:05:00;98925.69;;;3.01;100.00
8318;BME280;4196;48.926;8.964;2022-12-07T16:07:47;98951.78;;;3.21;100.00
8318;BME280;4196;48.926;8.964;2022-12-07T16:10:34;98951.63;;;3.14;100.00
8318;BME280;4196;48.926;8.964;2022-12-07T16:13:20;98974.91;;;3.25;100.00
8318;BME280;4196;48.926;8.964;2022-12-07T16:16:09;98976.53;;;3.22;100.00
8318;BME280;4196;48.926;8.964;2022-12-07T16:18:57;98956.09;;;3.23;100.00
8318;BME280;4196;48.926;8.964;2022-12-07T16:21:43;98948.13;;;3.12;100.00
8318;BME280;4196;48.926;8.964;2022-12-07T16:24:30;98962.06;;;3.24;100.00
8318;BME280;4196;48.926;8.964;2022-12-07T16:27:17;98935.81;;;2.96;100.00
8318;BME280;4196;48.926;8.964;2022-12-07T16:30:04;98931.16;;;2.81;100.00
8318;BME280;4196;48.926;8.964;2022-12-07T16:32:51;98932.47;;;2.65;100.00
8318;BME280;4196;48.926;8.964;2022-12-07T16:35:38;98910.91;;;2.26;100.00
8318;BME280;4196;48.926;8.964;2022-12-07T16:38:26;98914.25;;;2.23;100.00
8318;BME280;4196;48.926;8.964;2022-12-07T16:41:13;98916.97;;;1.99;100.00
8318;BME280;4196;48.926;8.964;2022-12-07T16:44:06;98941.19;;;2.13;100.00
8318;BME280;4196;48.926;8.964;2022-12-07T16:46:52;98914.44;;;1.99;100.00
8318;BME280;4196;48.926;8.964;2022-12-07T16:49:39;98933.38;;;2.07;100.00
8318;BME280;4196;48.926;8.964;2022-12-07T16:52:25;98919.78;;;2.08;100.00
8318;BME280;4196;48.926;8.964;2022-12-07T16:55:11;98935.53;;;2.24;100.00